sensor_id;sensor_type;location;lat;lon;timestamp;P1;durP1;ratioP1;P2;durP2;ratioP2
79401;SDS011;68857;47.916;106.940;2023-04-24T00:02:02;4.97;;;3.58;;
79401;SDS011;68857;47.916;106.940;2023-04-24T00:04:29;7.95;;;3.22;;
79401;SDS011;68857;47.916;106.940;2023-04-24T00:06:56;10.95;;;2.95;;
79401;SDS011;68857;47.916;106.940;2023-04-24T00:09:25;6.30;;;2.70;;
79401;SDS011;68857;47.916;106.940;2023-04-24T00:11:52;8.27;;;2.63;;
79401;SDS011;68857;47.916;106.940;2023-04-24T00:14:19;6.13;;;2.60;;
79401;SDS011;68857;47.916;106.940;2023-04-24T00:16:46;5.68;;;2.78;;
79401;SDS011;68857;47.916;106.940;2023-04-24T00:19:12;10.50;;;2.90;;
79401;SDS011;68857;47.916;106.940;2023-04-24T00:21:39;6.38;;;2.90;;
79401;SDS011;68857;47.916;106.940;2023-04-24T00:24:06;5.38;;;2.13;;
79401;SDS011;68857;47.916;106.940;2023-04-24T00:26:34;10.93;;;3.03;;
79401;SDS011;68857;47.916;106.940;2023-04-24T00:29:01;6.82;;;3.10;;
79401;SDS011;68857;47.916;106.940;2023-04-24T00:31:27;6.97;;;3.03;;
79401;SDS011;68857;47.916;106.940;2023-04-24T00:33:54;6.72;;;3.38;;
79401;SDS011;68857;47.916;106.940;2023-04-24T00:36:21;5.57;;;3.38;;
79401;SDS011;68857;47.916;106.940;2023-04-24T00:38:47;6.78;;;3.35;;
79401;SDS011;68857;47.916;106.940;2023-04-24T00:41:14;6.55;;;3.05;;
79401;SDS011;68857;47.916;106.940;2023-04-24T00:43:40;8.50;;;3.20;;
79401;SDS011;68857;47.916;106.940;2023-04-24T00:46:07;7.68;;;3.30;;
79401;SDS011;68857;47.916;106.940;2023-04-24T00:48:34;11.65;;;4.05;;
79401;SDS011;68857;47.916;106.940;2023-04-24T00:51:00;7.13;;;3.30;;
79401;SDS011;68857;47.916;106.940;2023-04-24T00:53:27;7.60;;;4.10;;
79401;SDS011;68857;47.916;106.940;2023-04-24T00:55:54;7.40;;;3.65;;
79401;SDS011;68857;47.916;106.940;2023-04-24T00:58:22;13.95;;;4.55;;
79401;SDS011;68857;47.916;106.940;2023-04-24T01:00:48;7.57;;;3.53;;
79401;SDS011;68857;47.916;106.940;2023-04-24T01:03:24;7.70;;;5.40;;
79401;SDS011;68857;47.916;106.940;2023-04-24T01:05:51;8.60;;;4.20;;
79401;SDS011;68857;47.916;106.940;2023-04-24T01:08:18;9.68;;;4.20;;
79401;SDS011;68857;47.916;106.940;2023-04-24T01:10:46;11.57;;;4.53;;
79401;SDS011;68857;47.916;106.940;2023-04-24T01:13:14;12.30;;;4.43;;
79401;SDS011;68857;47.916;106.940;2023-04-24T01:15:41;8.68;;;4.38;;
79401;SDS011;68857;47.916;106.940;2023-04-24T01:18:07;10.02;;;5.13;;
79401;SDS011;68857;47.916;106.940;2023-04-24T01:20:34;7.50;;;4.07;;
79401;SDS011;68857;47.916;106.940;2023-04-24T01:23:02;8.57;;;3.90;;
79401;SDS011;68857;47.916;106.940;2023-04-24T01:25:28;7.43;;;3.13;;
79401;SDS011;68857;47.916;106.940;2023-04-24T01:27:55;8.50;;;4.32;;
79401;SDS011;68857;47.916;106.940;2023-04-24T01:30:22;8.00;;;5.07;;
79401;SDS011;68857;47.916;106.940;2023-04-24T01:32:49;8.23;;;3.80;;
79401;SDS011;68857;47.916;106.940;2023-04-24T01:35:15;9.50;;;4.90;;
79401;SDS011;68857;47.916;106.940;2023-04-24T01:37:42;10.45;;;4.60;;
79401;SDS011;68857;47.916;106.940;2023-04-24T01:40:08;10.20;;;4.47;;
79401;SDS011;68857;47.916;106.940;2023-04-24T01:42:35;9.32;;;4.05;;
79401;SDS011;68857;47.916;106.940;2023-04-24T01:45:03;10.18;;;4.20;;
79401;SDS011;68857;47.916;106.940;2023-04-24T01:47:31;13.50;;;4.32;;
79401;SDS011;68857;47.916;106.940;2023-04-24T01:49:57;8.98;;;4.40;;
79401;SDS011;68857;47.916;106.940;2023-04-24T01:52:24;10.48;;;4.55;;
79401;SDS011;68857;47.916;106.940;2023-04-24T01:54:52;10.38;;;4.78;;
79401;SDS011;68857;47.916;106.940;2023-04-24T01:57:21;8.95;;;4.75;;
79401;SDS011;68857;47.916;106.940;2023-04-24T01:59:47;10.10;;;5.10;;
79401;SDS011;68857;47.916;106.940;2023-04-24T02:02:14;10.93;;;6.93;;
79401;SDS011;68857;47.916;106.940;2023-04-24T02:04:40;11.13;;;4.97;;
79401;SDS011;68857;47.916;106.940;2023-04-24T02:07:07;11.45;;;4.75;;
79401;SDS011;68857;47.916;106.940;2023-04-24T02:09:34;10.55;;;5.00;;
79401;SDS011;68857;47.916;106.940;2023-04-24T02:12:00;9.15;;;4.97;;
79401;SDS011;68857;47.916;106.940;2023-04-24T02:14:27;11.75;;;4.85;;
79401;SDS011;68857;47.916;106.940;2023-04-24T02:16:53;13.15;;;6.85;;
79401;SDS011;68857;47.916;106.940;2023-04-24T02:19:20;9.45;;;5.40;;
79401;SDS011;68857;47.916;106.940;2023-04-24T02:21:46;9.63;;;4.63;;
79401;SDS011;68857;47.916;106.940;2023-04-24T02:24:13;9.60;;;4.45;;
79401;SDS011;68857;47.916;106.940;2023-04-24T02:26:39;8.23;;;3.55;;
79401;SDS011;68857;47.916;106.940;2023-04-24T02:29:06;10.27;;;4.60;;
79401;SDS011;68857;47.916;106.940;2023-04-24T02:31:33;9.38;;;4.47;;
79401;SDS011;68857;47.916;106.940;2023-04-24T02:33:59;9.95;;;4.57;;
79401;SDS011;68857;47.916;106.940;2023-04-24T02:36:26;7.50;;;3.88;;
79401;SDS011;68857;47.916;106.940;2023-04-24T02:38:53;7.47;;;4.45;;
79401;SDS011;68857;47.916;106.940;2023-04-24T02:41:19;7.70;;;4.35;;
79401;SDS011;68857;47.916;106.940;2023-04-24T02:43:46;10.80;;;4.53;;
79401;SDS011;68857;47.916;106.940;2023-04-24T02:46:12;8.85;;;4.45;;
79401;SDS011;68857;47.916;106.940;2023-04-24T02:48:39;6.82;;;3.40;;
79401;SDS011;68857;47.916;106.940;2023-04-24T02:51:05;7.50;;;4.45;;
79401;SDS011;68857;47.916;106.940;2023-04-24T02:53:32;8.20;;;3.75;;
79401;SDS011;68857;47.916;106.940;2023-04-24T02:55:59;7.95;;;4.32;;
79401;SDS011;68857;47.916;106.940;2023-04-24T02:58:25;9.02;;;5.32;;
79401;SDS011;68857;47.916;106.940;2023-04-24T03:00:55;6.80;;;3.83;;
79401;SDS011;68857;47.916;106.940;2023-04-24T03:03:22;8.88;;;4.60;;
79401;SDS011;68857;47.916;106.940;2023-04-24T03:05:49;7.03;;;4.25;;
79401;SDS011;68857;47.916;106.940;2023-04-24T03:08:16;7.50;;;4.07;;
79401;SDS011;68857;47.916;106.940;2023-04-24T03:10:43;7.95;;;4.20;;
79401;SDS011;68857;47.916;106.940;2023-04-24T03:13:09;8.25;;;4.22;;
79401;SDS011;68857;47.916;106.940;2023-04-24T03:15:36;6.25;;;3.38;;
79401;SDS011;68857;47.916;106.940;2023-04-24T03:18:02;6.90;;;3.95;;
79401;SDS011;68857;47.916;106.940;2023-04-24T03:20:29;6.95;;;3.53;;
79401;SDS011;68857;47.916;106.940;2023-04-24T03:22:56;6.90;;;3.60;;
79401;SDS011;68857;47.916;106.940;2023-04-24T03:25:22;7.70;;;3.28;;
79401;SDS011;68857;47.916;106.940;2023-04-24T03:27:49;6.85;;;3.47;;
79401;SDS011;68857;47.916;106.940;2023-04-24T03:30:15;6.85;;;2.67;;
79401;SDS011;68857;47.916;106.940;2023-04-24T03:32:42;6.47;;;2.90;;
79401;SDS011;68857;47.916;106.940;2023-04-24T03:35:08;6.03;;;3.42;;
79401;SDS011;68857;47.916;106.940;2023-04-24T03:37:35;6.53;;;3.28;;
79401;SDS011;68857;47.916;106.940;2023-04-24T03:40:02;6.05;;;3.38;;
79401;SDS011;68857;47.916;106.940;2023-04-24T03:42:29;5.90;;;3.60;;
79401;SDS011;68857;47.916;106.940;2023-04-24T03:44:55;6.50;;;3.40;;
79401;SDS011;68857;47.916;106.940;2023-04-24T03:47:22;6.60;;;3.10;;
79401;SDS011;68857;47.916;106.940;2023-04-24T03:49:49;6.50;;;3.38;;
79401;SDS011;68857;47.916;106.940;2023-04-24T03:52:15;6.18;;;2.95;;
79401;SDS011;68857;47.916;106.940;2023-04-24T03:54:42;5.15;;;2.65;;
79401;SDS011;68857;47.916;106.940;2023-04-24T03:57:08;5.22;;;2.55;;
79401;SDS011;68857;47.916;106.940;2023-04-24T03:59:35;5.40;;;3.08;;
79401;SDS011;68857;47.916;106.940;2023-04-24T04:02:01;4.93;;;2.88;;
79401;SDS011;68857;47.916;106.940;2023-04-24T04:04:28;5.45;;;2.92;;
79401;SDS011;68857;47.916;106.940;2023-04-24T04:06:54;6.85;;;2.67;;
79401;SDS011;68857;47.916;106.940;2023-04-24T04:09:21;6.70;;;2.90;;
79401;SDS011;68857;47.916;106.940;2023-04-24T04:11:47;4.57;;;3.20;;
79401;SDS011;68857;47.916;106.940;2023-04-24T04:14:14;4.50;;;2.33;;
79401;SDS011;68857;47.916;106.940;2023-04-24T04:16:41;6.95;;;2.50;;
79401;SDS011;68857;47.916;106.940;2023-04-24T04:19:08;5.25;;;1.90;;
79401;SDS011;68857;47.916;106.940;2023-04-24T04:21:34;5.50;;;2.92;;
79401;SDS011;68857;47.916;106.940;2023-04-24T04:24:01;5.03;;;2.70;;
79401;SDS011;68857;47.916;106.940;2023-04-24T04:26:27;5.35;;;2.90;;
79401;SDS011;68857;47.916;106.940;2023-04-24T04:28:58;5.38;;;2.40;;
79401;SDS011;68857;47.916;106.940;2023-04-24T04:31:26;5.93;;;2.92;;
79401;SDS011;68857;47.916;106.940;2023-04-24T04:33:52;5.55;;;2.75;;
79401;SDS011;68857;47.916;106.940;2023-04-24T04:36:19;6.00;;;2.45;;
79401;SDS011;68857;47.916;106.940;2023-04-24T04:38:46;6.57;;;2.38;;
79401;SDS011;68857;47.916;106.940;2023-04-24T04:41:13;6.03;;;2.67;;
79401;SDS011;68857;47.916;106.940;2023-04-24T04:43:42;5.28;;;2.40;;
79401;SDS011;68857;47.916;106.940;2023-04-24T04:46:08;4.35;;;2.65;;
79401;SDS011;68857;47.916;106.940;2023-04-24T04:48:36;5.65;;;2.53;;
79401;SDS011;68857;47.916;106.940;2023-04-24T04:51:03;3.70;;;2.38;;
79401;SDS011;68857;47.916;106.940;2023-04-24T04:53:30;5.30;;;2.85;;
79401;SDS011;68857;47.916;106.940;2023-04-24T04:55:56;3.85;;;2.63;;
79401;SDS011;68857;47.916;106.940;2023-04-24T04:58:24;4.78;;;2.65;;
79401;SDS011;68857;47.916;106.940;2023-04-24T05:00:51;4.70;;;3.28;;
79401;SDS011;68857;47.916;106.940;2023-04-24T05:03:18;4.13;;;2.20;;
79401;SDS011;68857;47.916;106.940;2023-04-24T05:05:45;5.95;;;4.78;;
79401;SDS011;68857;47.916;106.940;2023-04-24T05:08:11;5.32;;;2.63;;
79401;SDS011;68857;47.916;106.940;2023-04-24T05:10:38;4.47;;;2.60;;
79401;SDS011;68857;47.916;106.940;2023-04-24T05:13:04;5.40;;;2.50;;
79401;SDS011;68857;47.916;106.940;2023-04-24T05:15:31;5.03;;;2.70;;
79401;SDS011;68857;47.916;106.940;2023-04-24T05:17:57;4.78;;;2.60;;
79401;SDS011;68857;47.916;106.940;2023-04-24T05:20:24;4.60;;;2.80;;
79401;SDS011;68857;47.916;106.940;2023-04-24T05:22:51;4.68;;;2.70;;
79401;SDS011;68857;47.916;106.940;2023-04-24T05:25:17;4.93;;;2.10;;
79401;SDS011;68857;47.916;106.940;2023-04-24T05:27:45;5.03;;;2.10;;
79401;SDS011;68857;47.916;106.940;2023-04-24T05:30:11;4.75;;;2.13;;
79401;SDS011;68857;47.916;106.940;2023-04-24T05:32:38;3.92;;;2.90;;
79401;SDS011;68857;47.916;106.940;2023-04-24T05:35:05;3.63;;;1.88;;
79401;SDS011;68857;47.916;106.940;2023-04-24T05:37:31;4.50;;;2.03;;
79401;SDS011;68857;47.916;106.940;2023-04-24T05:39:58;5.70;;;2.00;;
79401;SDS011;68857;47.916;106.940;2023-04-24T05:42:24;3.65;;;2.00;;
79401;SDS011;68857;47.916;106.940;2023-04-24T05:44:51;3.47;;;1.95;;
79401;SDS011;68857;47.916;106.940;2023-04-24T05:47:19;4.63;;;2.20;;
79401;SDS011;68857;47.916;106.940;2023-04-24T05:49:47;3.50;;;1.75;;
79401;SDS011;68857;47.916;106.940;2023-04-24T05:52:14;3.58;;;1.92;;
79401;SDS011;68857;47.916;106.940;2023-04-24T05:54:40;2.85;;;2.10;;
79401;SDS011;68857;47.916;106.940;2023-04-24T05:57:07;5.50;;;3.75;;
79401;SDS011;68857;47.916;106.940;2023-04-24T05:59:36;3.40;;;1.98;;
79401;SDS011;68857;47.916;106.940;2023-04-24T06:02:03;3.80;;;1.52;;
79401;SDS011;68857;47.916;106.940;2023-04-24T06:04:31;2.70;;;1.42;;
79401;SDS011;68857;47.916;106.940;2023-04-24T06:06:58;2.63;;;1.52;;
79401;SDS011;68857;47.916;106.940;2023-04-24T06:09:25;2.85;;;1.85;;
79401;SDS011;68857;47.916;106.940;2023-04-24T06:11:52;3.00;;;1.48;;
79401;SDS011;68857;47.916;106.940;2023-04-24T06:14:19;3.40;;;1.20;;
79401;SDS011;68857;47.916;106.940;2023-04-24T06:16:46;3.47;;;1.65;;
79401;SDS011;68857;47.916;106.940;2023-04-24T06:19:13;2.47;;;1.25;;
79401;SDS011;68857;47.916;106.940;2023-04-24T06:21:39;2.72;;;1.70;;
79401;SDS011;68857;47.916;106.940;2023-04-24T06:24:06;2.50;;;1.67;;
79401;SDS011;68857;47.916;106.940;2023-04-24T06:26:32;2.15;;;1.17;;
79401;SDS011;68857;47.916;106.940;2023-04-24T06:28:59;3.05;;;1.25;;
79401;SDS011;68857;47.916;106.940;2023-04-24T06:31:25;2.25;;;1.25;;
79401;SDS011;68857;47.916;106.940;2023-04-24T06:33:52;3.67;;;2.22;;
79401;SDS011;68857;47.916;106.940;2023-04-24T06:36:19;2.58;;;1.77;;
79401;SDS011;68857;47.916;106.940;2023-04-24T06:38:45;2.35;;;1.35;;
79401;SDS011;68857;47.916;106.940;2023-04-24T06:41:12;3.22;;;1.77;;
79401;SDS011;68857;47.916;106.940;2023-04-24T06:43:38;3.75;;;1.60;;
79401;SDS011;68857;47.916;106.940;2023-04-24T06:46:06;2.50;;;1.30;;
79401;SDS011;68857;47.916;106.940;2023-04-24T06:48:32;3.03;;;1.33;;
79401;SDS011;68857;47.916;106.940;2023-04-24T06:50:59;1.95;;;1.02;;
79401;SDS011;68857;47.916;106.940;2023-04-24T06:53:25;2.75;;;1.27;;
79401;SDS011;68857;47.916;106.940;2023-04-24T06:55:52;2.83;;;1.60;;
79401;SDS011;68857;47.916;106.940;2023-04-24T06:58:19;5.05;;;2.03;;
79401;SDS011;68857;47.916;106.940;2023-04-24T07:00:46;1.67;;;1.08;;
79401;SDS011;68857;47.916;106.940;2023-04-24T07:03:12;4.63;;;1.48;;
79401;SDS011;68857;47.916;106.940;2023-04-24T07:05:39;2.45;;;1.23;;
79401;SDS011;68857;47.916;106.940;2023-04-24T07:08:06;4.07;;;1.58;;
79401;SDS011;68857;47.916;106.940;2023-04-24T07:10:36;2.28;;;1.10;;
79401;SDS011;68857;47.916;106.940;2023-04-24T07:13:03;2.20;;;1.20;;
79401;SDS011;68857;47.916;106.940;2023-04-24T07:15:29;4.43;;;1.50;;
79401;SDS011;68857;47.916;106.940;2023-04-24T07:17:57;2.50;;;1.42;;
79401;SDS011;68857;47.916;106.940;2023-04-24T07:20:23;2.92;;;1.60;;
79401;SDS011;68857;47.916;106.940;2023-04-24T07:22:50;3.10;;;1.30;;
79401;SDS011;68857;47.916;106.940;2023-04-24T07:25:19;4.15;;;1.40;;
79401;SDS011;68857;47.916;106.940;2023-04-24T07:27:45;3.15;;;1.33;;
79401;SDS011;68857;47.916;106.940;2023-04-24T07:30:13;2.33;;;1.48;;
79401;SDS011;68857;47.916;106.940;2023-04-24T07:32:39;2.35;;;1.90;;
79401;SDS011;68857;47.916;106.940;2023-04-24T07:35:06;2.58;;;1.23;;
79401;SDS011;68857;47.916;106.940;2023-04-24T07:37:35;6.25;;;1.85;;
79401;SDS011;68857;47.916;106.940;2023-04-24T07:40:01;2.80;;;1.70;;
79401;SDS011;68857;47.916;106.940;2023-04-24T07:42:29;2.05;;;1.33;;
79401;SDS011;68857;47.916;106.940;2023-04-24T07:44:59;1.80;;;1.58;;
79401;SDS011;68857;47.916;106.940;2023-04-24T07:47:26;3.30;;;1.60;;
79401;SDS011;68857;47.916;106.940;2023-04-24T07:49:53;2.90;;;1.13;;
79401;SDS011;68857;47.916;106.940;2023-04-24T07:52:20;2.38;;;1.35;;
79401;SDS011;68857;47.916;106.940;2023-04-24T07:54:46;5.35;;;1.92;;
79401;SDS011;68857;47.916;106.940;2023-04-24T07:57:13;4.40;;;1.95;;
79401;SDS011;68857;47.916;106.940;2023-04-24T07:59:40;4.85;;;2.40;;
79401;SDS011;68857;47.916;106.940;2023-04-24T08:02:06;2.15;;;1.20;;
79401;SDS011;68857;47.916;106.940;2023-04-24T08:04:33;4.68;;;1.63;;
79401;SDS011;68857;47.916;106.940;2023-04-24T08:06:59;1.73;;;1.20;;
79401;SDS011;68857;47.916;106.940;2023-04-24T08:09:26;3.42;;;1.85;;
79401;SDS011;68857;47.916;106.940;2023-04-24T08:11:52;3.03;;;1.50;;
79401;SDS011;68857;47.916;106.940;2023-04-24T08:14:19;3.10;;;1.40;;
79401;SDS011;68857;47.916;106.940;2023-04-24T08:16:46;2.28;;;1.10;;
79401;SDS011;68857;47.916;106.940;2023-04-24T08:19:13;3.00;;;1.65;;
79401;SDS011;68857;47.916;106.940;2023-04-24T08:21:39;2.30;;;1.38;;
79401;SDS011;68857;47.916;106.940;2023-04-24T08:24:06;1.98;;;1.60;;
79401;SDS011;68857;47.916;106.940;2023-04-24T08:26:33;3.58;;;1.63;;
79401;SDS011;68857;47.916;106.940;2023-04-24T08:29:00;2.95;;;1.10;;
79401;SDS011;68857;47.916;106.940;2023-04-24T08:31:27;3.83;;;1.83;;
79401;SDS011;68857;47.916;106.940;2023-04-24T08:33:53;2.92;;;1.83;;
79401;SDS011;68857;47.916;106.940;2023-04-24T08:36:19;2.13;;;1.60;;
79401;SDS011;68857;47.916;106.940;2023-04-24T08:38:46;3.47;;;1.70;;
79401;SDS011;68857;47.916;106.940;2023-04-24T08:41:13;1.98;;;1.60;;
79401;SDS011;68857;47.916;106.940;2023-04-24T08:43:41;2.95;;;1.60;;
79401;SDS011;68857;47.916;106.940;2023-04-24T08:46:08;1.98;;;1.13;;
79401;SDS011;68857;47.916;106.940;2023-04-24T08:48:35;2.75;;;1.27;;
79401;SDS011;68857;47.916;106.940;2023-04-24T08:51:02;3.45;;;1.60;;
79401;SDS011;68857;47.916;106.940;2023-04-24T08:53:28;2.72;;;1.48;;
79401;SDS011;68857;47.916;106.940;2023-04-24T08:55:55;3.03;;;2.20;;
79401;SDS011;68857;47.916;106.940;2023-04-24T08:58:22;2.88;;;1.60;;
79401;SDS011;68857;47.916;106.940;2023-04-24T09:00:51;2.67;;;1.75;;
79401;SDS011;68857;47.916;106.940;2023-04-24T09:03:18;3.38;;;1.77;;
79401;SDS011;68857;47.916;106.940;2023-04-24T09:05:46;4.78;;;2.40;;
79401;SDS011;68857;47.916;106.940;2023-04-24T09:08:13;5.18;;;1.70;;
79401;SDS011;68857;47.916;106.940;2023-04-24T09:10:40;2.50;;;1.45;;
79401;SDS011;68857;47.916;106.940;2023-04-24T09:13:09;3.55;;;1.65;;
79401;SDS011;68857;47.916;106.940;2023-04-24T09:15:37;3.63;;;1.80;;
79401;SDS011;68857;47.916;106.940;2023-04-24T09:18:04;2.75;;;1.35;;
79401;SDS011;68857;47.916;106.940;2023-04-24T09:20:31;6.00;;;2.15;;
79401;SDS011;68857;47.916;106.940;2023-04-24T09:22:58;4.78;;;1.80;;
79401;SDS011;68857;47.916;106.940;2023-04-24T09:25:30;3.67;;;1.75;;
79401;SDS011;68857;47.916;106.940;2023-04-24T09:28:00;3.60;;;2.00;;
79401;SDS011;68857;47.916;106.940;2023-04-24T09:30:27;3.75;;;2.78;;
79401;SDS011;68857;47.916;106.940;2023-04-24T09:33:12;3.17;;;2.08;;
79401;SDS011;68857;47.916;106.940;2023-04-24T09:35:40;3.40;;;1.92;;
79401;SDS011;68857;47.916;106.940;2023-04-24T09:38:08;3.35;;;1.58;;
79401;SDS011;68857;47.916;106.940;2023-04-24T09:40:35;3.13;;;2.45;;
79401;SDS011;68857;47.916;106.940;2023-04-24T09:43:02;3.63;;;1.67;;
79401;SDS011;68857;47.916;106.940;2023-04-24T09:45:35;3.00;;;1.63;;
79401;SDS011;68857;47.916;106.940;2023-04-24T09:48:02;3.45;;;1.65;;
79401;SDS011;68857;47.916;106.940;2023-04-24T09:50:30;2.22;;;1.30;;
79401;SDS011;68857;47.916;106.940;2023-04-24T09:52:58;2.35;;;1.55;;
79401;SDS011;68857;47.916;106.940;2023-04-24T09:55:24;3.10;;;1.88;;
79401;SDS011;68857;47.916;106.940;2023-04-24T09:57:52;2.90;;;2.22;;
79401;SDS011;68857;47.916;106.940;2023-04-24T10:00:23;3.22;;;2.10;;
79401;SDS011;68857;47.916;106.940;2023-04-24T10:02:54;3.55;;;1.42;;
79401;SDS011;68857;47.916;106.940;2023-04-24T10:05:25;6.88;;;2.08;;
79401;SDS011;68857;47.916;106.940;2023-04-24T10:07:56;3.28;;;1.40;;
79401;SDS011;68857;47.916;106.940;2023-04-24T10:10:22;3.47;;;2.10;;
79401;SDS011;68857;47.916;106.940;2023-04-24T10:12:49;2.95;;;1.75;;
79401;SDS011;68857;47.916;106.940;2023-04-24T10:15:17;2.95;;;1.73;;
79401;SDS011;68857;47.916;106.940;2023-04-24T10:17:50;3.08;;;1.77;;
79401;SDS011;68857;47.916;106.940;2023-04-24T10:20:20;4.97;;;1.92;;
79401;SDS011;68857;47.916;106.940;2023-04-24T10:22:48;3.88;;;2.00;;
79401;SDS011;68857;47.916;106.940;2023-04-24T10:25:21;2.80;;;1.60;;
79401;SDS011;68857;47.916;106.940;2023-04-24T10:27:49;3.40;;;1.90;;
79401;SDS011;68857;47.916;106.940;2023-04-24T10:30:17;2.15;;;1.50;;
79401;SDS011;68857;47.916;106.940;2023-04-24T10:32:44;2.40;;;1.40;;
79401;SDS011;68857;47.916;106.940;2023-04-24T10:35:13;2.13;;;1.60;;
79401;SDS011;68857;47.916;106.940;2023-04-24T10:37:45;4.93;;;2.22;;
79401;SDS011;68857;47.916;106.940;2023-04-24T10:40:12;5.05;;;2.08;;
79401;SDS011;68857;47.916;106.940;2023-04-24T10:42:42;4.65;;;2.72;;
79401;SDS011;68857;47.916;106.940;2023-04-24T10:45:21;5.07;;;1.75;;
79401;SDS011;68857;47.916;106.940;2023-04-24T10:48:07;3.20;;;1.85;;
79401;SDS011;68857;47.916;106.940;2023-04-24T10:50:56;3.22;;;1.63;;
79401;SDS011;68857;47.916;106.940;2023-04-24T10:53:24;4.78;;;1.77;;
79401;SDS011;68857;47.916;106.940;2023-04-24T10:56:15;3.92;;;3.25;;
79401;SDS011;68857;47.916;106.940;2023-04-24T10:58:52;4.20;;;1.80;;
79401;SDS011;68857;47.916;106.940;2023-04-24T11:01:23;3.95;;;2.40;;
79401;SDS011;68857;47.916;106.940;2023-04-24T11:03:57;4.88;;;1.50;;
79401;SDS011;68857;47.916;106.940;2023-04-24T11:06:31;3.70;;;2.28;;
79401;SDS011;68857;47.916;106.940;2023-04-24T11:09:07;3.47;;;1.88;;
79401;SDS011;68857;47.916;106.940;2023-04-24T11:11:36;5.97;;;1.70;;
79401;SDS011;68857;47.916;106.940;2023-04-24T11:14:06;6.20;;;2.60;;
79401;SDS011;68857;47.916;106.940;2023-04-24T11:16:43;5.95;;;3.80;;
79401;SDS011;68857;47.916;106.940;2023-04-24T11:19:17;5.60;;;2.05;;
79401;SDS011;68857;47.916;106.940;2023-04-24T11:21:49;3.70;;;2.38;;
79401;SDS011;68857;47.916;106.940;2023-04-24T11:24:24;6.93;;;2.00;;
79401;SDS011;68857;47.916;106.940;2023-04-24T11:26:54;5.97;;;2.00;;
79401;SDS011;68857;47.916;106.940;2023-04-24T11:29:22;5.50;;;2.17;;
79401;SDS011;68857;47.916;106.940;2023-04-24T11:31:49;3.78;;;2.08;;
79401;SDS011;68857;47.916;106.940;2023-04-24T11:34:16;6.15;;;2.40;;
79401;SDS011;68857;47.916;106.940;2023-04-24T11:36:44;6.00;;;2.65;;
79401;SDS011;68857;47.916;106.940;2023-04-24T11:39:11;5.82;;;2.47;;
79401;SDS011;68857;47.916;106.940;2023-04-24T11:41:38;5.43;;;2.55;;
79401;SDS011;68857;47.916;106.940;2023-04-24T11:44:06;5.53;;;2.60;;
79401;SDS011;68857;47.916;106.940;2023-04-24T11:46:33;7.05;;;2.70;;
79401;SDS011;68857;47.916;106.940;2023-04-24T11:48:59;5.55;;;2.50;;
79401;SDS011;68857;47.916;106.940;2023-04-24T11:51:27;6.75;;;3.00;;
79401;SDS011;68857;47.916;106.940;2023-04-24T11:53:54;5.30;;;2.72;;
79401;SDS011;68857;47.916;106.940;2023-04-24T11:56:22;6.90;;;4.05;;
79401;SDS011;68857;47.916;106.940;2023-04-24T11:58:51;10.55;;;3.10;;
79401;SDS011;68857;47.916;106.940;2023-04-24T12:01:19;7.03;;;3.67;;
79401;SDS011;68857;47.916;106.940;2023-04-24T12:03:49;8.27;;;4.32;;
79401;SDS011;68857;47.916;106.940;2023-04-24T12:06:16;6.80;;;3.28;;
79401;SDS011;68857;47.916;106.940;2023-04-24T12:08:45;7.85;;;3.60;;
79401;SDS011;68857;47.916;106.940;2023-04-24T12:11:14;7.60;;;3.78;;
79401;SDS011;68857;47.916;106.940;2023-04-24T12:13:40;7.25;;;4.38;;
79401;SDS011;68857;47.916;106.940;2023-04-24T12:16:07;9.48;;;4.25;;
79401;SDS011;68857;47.916;106.940;2023-04-24T12:18:33;10.90;;;4.65;;
79401;SDS011;68857;47.916;106.940;2023-04-24T12:21:19;8.77;;;4.35;;
79401;SDS011;68857;47.916;106.940;2023-04-24T12:23:46;9.25;;;4.15;;
79401;SDS011;68857;47.916;106.940;2023-04-24T12:26:16;9.40;;;3.97;;
79401;SDS011;68857;47.916;106.940;2023-04-24T12:28:45;8.55;;;4.80;;
79401;SDS011;68857;47.916;106.940;2023-04-24T12:31:12;11.77;;;4.68;;
79401;SDS011;68857;47.916;106.940;2023-04-24T12:33:38;11.23;;;5.05;;
79401;SDS011;68857;47.916;106.940;2023-04-24T12:36:05;11.32;;;4.13;;
79401;SDS011;68857;47.916;106.940;2023-04-24T12:38:32;10.07;;;4.32;;
79401;SDS011;68857;47.916;106.940;2023-04-24T12:41:09;11.32;;;4.50;;
79401;SDS011;68857;47.916;106.940;2023-04-24T12:43:36;9.68;;;4.55;;
79401;SDS011;68857;47.916;106.940;2023-04-24T12:46:03;11.65;;;5.03;;
79401;SDS011;68857;47.916;106.940;2023-04-24T12:48:30;13.77;;;5.70;;
79401;SDS011;68857;47.916;106.940;2023-04-24T12:50:57;12.27;;;5.28;;
79401;SDS011;68857;47.916;106.940;2023-04-24T12:53:26;14.15;;;5.80;;
79401;SDS011;68857;47.916;106.940;2023-04-24T12:55:55;12.60;;;6.45;;
79401;SDS011;68857;47.916;106.940;2023-04-24T12:58:21;13.43;;;6.45;;
79401;SDS011;68857;47.916;106.940;2023-04-24T13:00:48;13.80;;;5.85;;
79401;SDS011;68857;47.916;106.940;2023-04-24T13:03:15;14.35;;;7.90;;
79401;SDS011;68857;47.916;106.940;2023-04-24T13:05:42;17.02;;;6.75;;
79401;SDS011;68857;47.916;106.940;2023-04-24T13:08:09;11.45;;;6.13;;
79401;SDS011;68857;47.916;106.940;2023-04-24T13:10:36;15.60;;;7.07;;
79401;SDS011;68857;47.916;106.940;2023-04-24T13:13:03;14.25;;;7.35;;
79401;SDS011;68857;47.916;106.940;2023-04-24T13:15:29;16.35;;;7.95;;
79401;SDS011;68857;47.916;106.940;2023-04-24T13:17:56;18.85;;;9.77;;
79401;SDS011;68857;47.916;106.940;2023-04-24T13:20:23;17.02;;;9.00;;
79401;SDS011;68857;47.916;106.940;2023-04-24T13:22:49;18.02;;;7.88;;
79401;SDS011;68857;47.916;106.940;2023-04-24T13:25:16;19.92;;;9.95;;
79401;SDS011;68857;47.916;106.940;2023-04-24T13:27:43;21.15;;;11.20;;
79401;SDS011;68857;47.916;106.940;2023-04-24T13:30:10;24.27;;;12.32;;
79401;SDS011;68857;47.916;106.940;2023-04-24T13:32:36;22.75;;;11.70;;
79401;SDS011;68857;47.916;106.940;2023-04-24T13:35:03;19.40;;;9.35;;
79401;SDS011;68857;47.916;106.940;2023-04-24T13:37:30;23.63;;;10.23;;
79401;SDS011;68857;47.916;106.940;2023-04-24T13:39:57;25.20;;;10.98;;
79401;SDS011;68857;47.916;106.940;2023-04-24T13:42:23;23.90;;;10.32;;
79401;SDS011;68857;47.916;106.940;2023-04-24T13:44:50;26.17;;;12.00;;
79401;SDS011;68857;47.916;106.940;2023-04-24T13:47:17;22.65;;;10.93;;
79401;SDS011;68857;47.916;106.940;2023-04-24T13:49:43;26.10;;;11.77;;
79401;SDS011;68857;47.916;106.940;2023-04-24T13:52:10;27.48;;;11.93;;
79401;SDS011;68857;47.916;106.940;2023-04-24T13:54:37;26.90;;;12.07;;
79401;SDS011;68857;47.916;106.940;2023-04-24T13:57:03;26.25;;;12.68;;
79401;SDS011;68857;47.916;106.940;2023-04-24T13:59:30;25.23;;;12.65;;
79401;SDS011;68857;47.916;106.940;2023-04-24T14:01:56;26.00;;;12.02;;
79401;SDS011;68857;47.916;106.940;2023-04-24T14:04:23;27.23;;;12.15;;
79401;SDS011;68857;47.916;106.940;2023-04-24T14:06:50;26.70;;;13.18;;
79401;SDS011;68857;47.916;106.940;2023-04-24T14:09:16;29.02;;;13.70;;
79401;SDS011;68857;47.916;106.940;2023-04-24T14:11:43;30.30;;;16.20;;
79401;SDS011;68857;47.916;106.940;2023-04-24T14:14:10;27.85;;;15.20;;
79401;SDS011;68857;47.916;106.940;2023-04-24T14:16:36;28.85;;;13.23;;
79401;SDS011;68857;47.916;106.940;2023-04-24T14:19:03;27.15;;;13.68;;
79401;SDS011;68857;47.916;106.940;2023-04-24T14:21:30;29.10;;;14.05;;